Time;durP1;ratioP1;P1;durP2;ratioP2;P2;SDS_P1;SDS_P2;PMS_P1;PMS_P2;Temp;Humidity;BMP_temperature;BMP_pressure;BME280_temperature;BME280_humidity;BME280_pressure;Samples;Min_cycle;Max_cycle;Signal;HPM_P1;HPM_P2
2023/02/28 00:01:13;;;;;;;6.70;5.40;;;2.60;99.90;;;;;;5074806;28;20878;-68
2023/02/28 00:03:40;;;;;;;6.47;4.67;;;2.60;99.90;;;;;;5074710;28;20537;-67
2023/02/28 00:06:10;;;;;;;7.50;4.63;;;2.60;99.90;;;;;;5074567;28;20537;-67
2023/02/28 00:08:37;;;;;;;6.37;5.00;;;2.70;99.90;;;;;;5075095;28;20494;-66
2023/02/28 00:11:04;;;;;;;7.77;5.03;;;2.70;99.90;;;;;;5075954;28;20534;-68
2023/02/28 00:13:32;;;;;;;7.90;4.60;;;2.70;99.90;;;;;;5075891;28;20533;-67
2023/02/28 00:16:05;;;;;;;8.50;4.97;;;2.60;99.90;;;;;;5075370;28;20556;-67
2023/02/28 00:18:32;;;;;;;7.80;5.67;;;2.50;99.90;;;;;;5076279;28;20565;-67
2023/02/28 00:20:59;;;;;;;7.07;5.00;;;2.50;99.90;;;;;;5075418;28;20514;-66
2023/02/28 00:23:26;;;;;;;6.97;4.67;;;2.60;99.90;;;;;;5075604;28;20540;-68
2023/02/28 00:25:53;;;;;;;6.27;4.70;;;2.60;99.90;;;;;;5075066;28;20459;-68
2023/02/28 00:28:21;;;;;;;8.20;4.73;;;2.70;99.90;;;;;;5074566;28;20482;-68
2023/02/28 00:30:48;;;;;;;6.20;4.27;;;2.90;99.90;;;;;;5074142;28;20549;-67
2023/02/28 00:33:17;;;;;;;7.50;4.60;;;3.00;99.90;;;;;;5074472;28;20863;-68
2023/02/28 00:35:46;;;;;;;6.53;4.67;;;2.90;99.90;;;;;;5074239;28;20541;-68
2023/02/28 00:38:12;;;;;;;8.37;4.70;;;2.90;99.90;;;;;;5074366;28;20466;-68
2023/02/28 00:40:39;;;;;;;5.83;4.30;;;2.80;99.90;;;;;;5076370;28;20509;-67
2023/02/28 00:43:06;;;;;;;7.07;5.23;;;2.80;99.90;;;;;;5078415;28;20540;-68
2023/02/28 00:45:33;;;;;;;5.13;3.63;;;2.80;99.90;;;;;;5078176;28;20549;-67
2023/02/28 00:48:00;;;;;;;6.67;4.23;;;2.90;99.90;;;;;;5078264;28;20826;-67
2023/02/28 00:50:28;;;;;;;6.53;4.50;;;2.80;99.90;;;;;;5078226;28;20465;-67
2023/02/28 00:52:55;;;;;;;8.70;4.93;;;2.90;99.90;;;;;;5078211;28;20537;-67
2023/02/28 00:55:22;;;;;;;7.23;4.20;;;2.80;99.90;;;;;;5078076;28;20836;-67
2023/02/28 00:57:49;;;;;;;6.80;4.70;;;2.80;99.90;;;;;;5077743;28;20544;-67
2023/02/28 01:00:16;;;;;;;7.77;4.40;;;2.80;99.90;;;;;;5077911;28;20454;-67
2023/02/28 01:02:43;;;;;;;5.93;4.10;;;2.80;99.90;;;;;;5077966;28;20453;-67
2023/02/28 01:05:10;;;;;;;8.77;5.23;;;2.90;99.90;;;;;;5078035;28;20840;-68
2023/02/28 01:07:38;;;;;;;10.97;5.87;;;2.90;99.90;;;;;;5077668;28;20454;-68
2023/02/28 01:10:06;;;;;;;6.20;4.30;;;3.00;99.90;;;;;;5077616;28;20544;-68
2023/02/28 01:12:33;;;;;;;6.13;4.30;;;2.90;99.90;;;;;;5077804;28;20458;-69
2023/02/28 01:15:00;;;;;;;6.57;4.67;;;3.00;99.90;;;;;;5077736;28;20832;-68
2023/02/28 01:17:26;;;;;;;6.50;4.30;;;3.00;99.90;;;;;;5077400;28;20496;-68
2023/02/28 01:19:54;;;;;;;8.13;4.83;;;3.00;99.90;;;;;;5077467;28;20501;-68
2023/02/28 01:22:21;;;;;;;7.70;4.90;;;3.00;99.90;;;;;;5077269;28;20488;-68
2023/02/28 01:24:50;;;;;;;11.43;6.20;;;2.90;99.90;;;;;;5077289;28;20945;-68
2023/02/28 01:27:17;;;;;;;7.00;4.70;;;2.90;99.90;;;;;;5077241;28;20462;-67
2023/02/28 01:29:43;;;;;;;7.13;4.47;;;2.90;99.90;;;;;;5077570;28;20549;-67
2023/02/28 01:32:10;;;;;;;9.30;5.17;;;2.80;99.90;;;;;;5077139;28;20492;-67
2023/02/28 01:34:37;;;;;;;10.80;5.77;;;2.70;99.90;;;;;;5077024;28;20549;-68
2023/02/28 01:37:04;;;;;;;18.20;5.40;;;2.70;99.90;;;;;;5077378;28;20464;-68
2023/02/28 01:39:31;;;;;;;5.93;4.70;;;2.70;99.90;;;;;;5077385;28;20464;-67
2023/02/28 01:41:59;;;;;;;6.80;4.63;;;2.80;99.90;;;;;;5076790;28;20810;-67
2023/02/28 01:45:02;;;;;;;10.20;4.23;;;2.80;99.90;;;;;;5076937;28;20945;-68
2023/02/28 01:47:32;;;;;;;6.20;4.93;;;2.80;99.90;;;;;;5076780;28;20438;-67
2023/02/28 01:50:01;;;;;;;10.63;6.83;;;2.80;99.90;;;;;;5077102;28;20790;-67
2023/02/28 01:52:29;;;;;;;6.43;5.40;;;2.90;99.90;;;;;;5076308;28;20537;-67
2023/02/28 01:54:57;;;;;;;8.80;5.17;;;2.90;99.90;;;;;;5076721;28;20949;-67
2023/02/28 01:57:37;;;;;;;8.40;5.00;;;2.90;99.90;;;;;;5076964;28;20454;-67
2023/02/28 02:00:08;;;;;;;8.37;4.50;;;2.80;99.90;;;;;;5076876;28;20507;-67
2023/02/28 02:02:37;;;;;;;10.27;5.23;;;3.00;99.90;;;;;;5076948;28;20488;-67
2023/02/28 02:05:06;;;;;;;9.07;5.60;;;3.10;99.90;;;;;;5076838;28;20568;-67
2023/02/28 02:07:36;;;;;;;10.77;6.63;;;3.10;99.90;;;;;;5076487;28;20460;-68
2023/02/28 02:10:06;;;;;;;6.97;5.00;;;3.10;99.90;;;;;;5076384;28;20990;-67
2023/02/28 02:12:46;;;;;;;6.50;4.90;;;3.10;99.90;;;;;;5076871;28;20451;-67
2023/02/28 02:15:17;;;;;;;8.13;5.17;;;2.90;99.90;;;;;;5076661;28;20442;-67
2023/02/28 02:17:49;;;;;;;6.30;4.70;;;2.90;99.90;;;;;;5076626;28;20466;-67
2023/02/28 02:20:52;;;;;;;11.70;5.33;;;2.80;99.90;;;;;;5076486;28;20829;-66
2023/02/28 02:23:55;;;;;;;8.20;5.50;;;2.70;99.90;;;;;;5076297;28;20466;-68
2023/02/28 02:26:55;;;;;;;10.40;5.10;;;2.70;99.90;;;;;;5076394;28;20452;-68
2023/02/28 02:29:50;;;;;;;6.73;5.20;;;2.70;99.90;;;;;;5076255;28;20458;-68
2023/02/28 02:32:35;;;;;;;6.23;4.90;;;2.80;99.90;;;;;;5076143;28;20835;-68
2023/02/28 02:35:13;;;;;;;7.47;5.10;;;2.90;99.90;;;;;;5076149;28;20434;-67
2023/02/28 02:37:48;;;;;;;9.00;5.40;;;2.90;99.90;;;;;;5076072;28;20434;-68
2023/02/28 02:40:19;;;;;;;8.30;5.13;;;2.80;99.90;;;;;;5076256;28;20444;-68
2023/02/28 02:42:51;;;;;;;10.00;4.97;;;2.80;99.90;;;;;;5076026;28;20557;-68
2023/02/28 02:45:23;;;;;;;7.03;4.73;;;2.80;99.90;;;;;;5075948;28;20463;-68
2023/02/28 02:47:51;;;;;;;6.83;4.73;;;2.80;99.90;;;;;;5075844;28;20449;-68
2023/02/28 02:50:27;;;;;;;6.70;5.30;;;2.80;99.90;;;;;;5075916;28;20458;-68
2023/02/28 02:52:57;;;;;;;7.73;5.10;;;2.70;99.90;;;;;;5076065;28;20439;-68
2023/02/28 02:55:26;;;;;;;10.90;6.13;;;2.70;99.90;;;;;;5075786;28;20545;-68
2023/02/28 02:57:55;;;;;;;9.37;5.53;;;2.70;99.90;;;;;;5075433;28;20872;-68
2023/02/28 03:00:27;;;;;;;8.00;5.80;;;2.60;99.90;;;;;;5075794;28;20477;-68
2023/02/28 03:02:56;;;;;;;8.40;6.07;;;2.60;99.90;;;;;;5074850;28;20462;-68
2023/02/28 03:05:27;;;;;;;8.13;5.90;;;2.50;99.90;;;;;;5075240;28;20469;-68
2023/02/28 03:07:54;;;;;;;8.17;5.60;;;2.40;99.90;;;;;;5075625;28;20448;-68
2023/02/28 03:10:31;;;;;;;7.83;5.30;;;2.30;99.90;;;;;;5075659;28;20484;-68
2023/02/28 03:13:29;;;;;;;6.83;5.23;;;2.20;99.90;;;;;;5075549;28;20452;-68
2023/02/28 03:16:08;;;;;;;7.57;6.00;;;2.20;99.90;;;;;;5075435;28;20445;-68
2023/02/28 03:18:45;;;;;;;16.57;11.03;;;2.10;99.90;;;;;;5075344;28;21025;-68
2023/02/28 03:21:24;;;;;;;10.53;7.83;;;2.10;99.90;;;;;;5075840;28;20529;-68
2023/02/28 03:24:00;;;;;;;13.27;5.90;;;1.90;99.90;;;;;;5074856;28;20474;-68
2023/02/28 03:26:28;;;;;;;10.13;6.03;;;1.90;99.90;;;;;;5074997;28;20453;-68
2023/02/28 03:29:03;;;;;;;9.63;6.00;;;2.00;99.90;;;;;;5075229;28;20454;-68
2023/02/28 03:31:34;;;;;;;7.20;6.50;;;2.10;99.90;;;;;;5075066;28;20473;-68
2023/02/28 03:34:09;;;;;;;9.13;5.70;;;2.00;99.90;;;;;;5075128;28;20443;-68
2023/02/28 03:36:43;;;;;;;8.77;5.30;;;2.00;99.90;;;;;;5074772;28;20452;-68
2023/02/28 03:39:15;;;;;;;7.67;5.87;;;1.90;99.90;;;;;;5075168;28;20537;-68
2023/02/28 03:41:47;;;;;;;12.43;5.90;;;1.80;99.90;;;;;;5074754;28;20496;-68
2023/02/28 03:44:19;;;;;;;7.30;5.90;;;1.90;99.90;;;;;;5075164;28;20801;-68
2023/02/28 03:46:53;;;;;;;10.70;6.23;;;1.90;99.90;;;;;;5074690;28;20443;-68
2023/02/28 03:49:24;;;;;;;9.47;6.87;;;1.90;99.90;;;;;;5074923;28;20442;-68
2023/02/28 03:51:55;;;;;;;7.80;5.80;;;1.80;99.90;;;;;;5074912;28;20529;-68
2023/02/28 03:54:28;;;;;;;8.27;5.57;;;1.90;99.90;;;;;;5074561;28;20537;-68
2023/02/28 03:57:00;;;;;;;8.47;6.50;;;1.90;99.90;;;;;;5075171;28;20766;-68
2023/02/28 03:59:32;;;;;;;9.00;6.20;;;1.80;99.90;;;;;;5074646;28;20500;-68
2023/02/28 04:01:59;;;;;;;8.37;6.33;;;1.80;99.90;;;;;;5074378;28;20466;-68
2023/02/28 04:04:26;;;;;;;9.60;6.87;;;1.90;99.90;;;;;;5074747;28;20546;-68
2023/02/28 04:07:02;;;;;;;9.73;6.17;;;1.90;99.90;;;;;;5074423;28;20458;-68
2023/02/28 04:09:29;;;;;;;7.33;5.70;;;1.90;99.90;;;;;;5074354;28;20442;-68
2023/02/28 04:11:56;;;;;;;11.57;6.33;;;2.00;99.90;;;;;;5057020;28;20461;-68
2023/02/28 04:14:23;;;;;;;10.73;6.67;;;1.90;99.90;;;;;;5054555;28;20461;-67
2023/02/28 04:16:51;;;;;;;8.60;6.03;;;1.90;99.90;;;;;;5054642;28;20463;-68
2023/02/28 04:19:18;;;;;;;10.53;7.20;;;1.90;99.90;;;;;;5054200;28;20491;-67
2023/02/28 04:21:47;;;;;;;11.07;6.73;;;1.90;99.90;;;;;;5055168;28;20483;-67
2023/02/28 04:24:17;;;;;;;11.53;5.97;;;2.00;99.90;;;;;;5055076;28;20455;-68
2023/02/28 04:26:45;;;;;;;10.70;6.70;;;1.90;99.90;;;;;;5054446;28;20542;-67
2023/02/28 04:29:14;;;;;;;9.33;6.40;;;1.90;99.90;;;;;;5054414;28;20476;-68
2023/02/28 04:31:41;;;;;;;13.20;6.73;;;1.90;99.90;;;;;;5054107;28;20538;-69
2023/02/28 04:34:08;;;;;;;10.43;7.70;;;1.90;99.90;;;;;;5054380;28;20463;-68
2023/02/28 04:36:35;;;;;;;8.97;6.60;;;1.90;99.90;;;;;;5054099;28;20454;-68
2023/02/28 04:39:03;;;;;;;11.17;7.07;;;1.90;99.90;;;;;;5054374;28;20455;-67
2023/02/28 04:41:32;;;;;;;9.07;6.40;;;1.90;99.90;;;;;;5053872;28;20459;-68
2023/02/28 04:43:59;;;;;;;11.43;7.20;;;1.90;99.90;;;;;;5053969;28;20459;-68
2023/02/28 04:46:26;;;;;;;9.93;6.20;;;1.80;99.90;;;;;;5054258;28;20557;-68
2023/02/28 04:48:53;;;;;;;13.27;7.20;;;1.80;99.90;;;;;;5054221;28;20466;-68
2023/02/28 04:51:20;;;;;;;10.17;6.30;;;1.70;99.90;;;;;;5053631;28;20455;-68
2023/02/28 04:53:48;;;;;;;11.07;7.10;;;1.70;99.90;;;;;;5053966;28;20459;-68
2023/02/28 04:56:16;;;;;;;9.70;7.37;;;1.70;99.90;;;;;;5053932;28;20455;-68
2023/02/28 04:58:45;;;;;;;13.50;7.43;;;1.70;99.90;;;;;;5053988;28;20935;-67
2023/02/28 05:01:22;;;;;;;10.87;7.63;;;1.60;99.90;;;;;;5054091;28;20467;-68
2023/02/28 05:03:49;;;;;;;11.13;7.20;;;1.50;99.90;;;;;;5054097;28;20481;-68
2023/02/28 05:06:16;;;;;;;9.47;6.00;;;1.50;99.90;;;;;;5054151;28;20477;-68
2023/02/28 05:08:43;;;;;;;9.60;7.27;;;1.50;99.90;;;;;;5054187;28;20544;-67
2023/02/28 05:11:16;;;;;;;8.77;7.10;;;1.50;99.90;;;;;;5053796;28;20455;-68
2023/02/28 05:13:44;;;;;;;12.30;6.40;;;1.50;99.90;;;;;;5053957;28;20530;-68
2023/02/28 05:16:11;;;;;;;10.00;6.40;;;1.50;99.90;;;;;;5054054;28;20758;-68
2023/02/28 05:18:38;;;;;;;9.50;6.80;;;1.50;99.90;;;;;;5053569;28;20482;-68
2023/02/28 05:21:05;;;;;;;10.07;7.30;;;1.40;99.90;;;;;;5053724;28;20517;-68
2023/02/28 05:23:32;;;;;;;9.10;6.67;;;1.40;99.90;;;;;;5053905;28;20479;-68
2023/02/28 05:25:59;;;;;;;8.10;7.20;;;1.40;99.90;;;;;;5054662;28;20651;-68
2023/02/28 05:28:25;;;;;;;15.70;10.27;;;1.50;99.90;;;;;;5057542;28;20497;-69
2023/02/28 05:30:54;;;;;;;10.97;8.47;;;1.40;99.90;;;;;;5057734;28;20755;-68
2023/02/28 05:33:20;;;;;;;11.23;7.70;;;1.40;99.90;;;;;;5057469;28;20451;-68
2023/02/28 05:35:47;;;;;;;28.50;20.23;;;1.30;99.90;;;;;;5057194;28;20465;-68
2023/02/28 05:38:14;;;;;;;27.57;18.97;;;1.30;99.90;;;;;;5057389;28;20550;-68
2023/02/28 05:40:41;;;;;;;27.30;16.70;;;1.20;99.90;;;;;;5057475;28;20459;-68
2023/02/28 05:43:11;;;;;;;18.53;13.37;;;1.10;99.90;;;;;;5057061;28;20867;-68
2023/02/28 05:45:38;;;;;;;12.63;8.90;;;1.20;99.90;;;;;;5056911;28;20498;-68
2023/02/28 05:48:07;;;;;;;13.90;10.03;;;1.20;99.90;;;;;;5057024;28;20545;-68
2023/02/28 05:50:33;;;;;;;11.47;8.00;;;1.30;99.90;;;;;;5057100;28;20789;-67
2023/02/28 05:53:00;;;;;;;9.20;7.90;;;1.30;99.90;;;;;;5057149;28;20463;-68
2023/02/28 05:55:27;;;;;;;10.70;7.30;;;1.30;99.90;;;;;;5056781;28;20465;-68
2023/02/28 05:57:54;;;;;;;11.60;6.83;;;1.30;99.90;;;;;;5057143;28;20465;-68
2023/02/28 06:00:21;;;;;;;59.17;32.20;;;1.40;99.90;;;;;;5057038;28;20455;-68
2023/02/28 06:02:48;;;;;;;18.70;12.20;;;1.30;99.90;;;;;;5056867;28;20501;-67
2023/02/28 06:05:18;;;;;;;15.90;9.30;;;1.40;99.90;;;;;;5056852;28;20531;-68
2023/02/28 06:07:45;;;;;;;13.90;8.47;;;1.30;99.90;;;;;;5056920;28;20469;-67
2023/02/28 06:10:13;;;;;;;15.00;9.20;;;1.30;99.90;;;;;;5056501;28;20939;-67
2023/02/28 06:12:41;;;;;;;9.60;7.77;;;1.30;99.90;;;;;;5056636;28;20447;-68
2023/02/28 06:15:11;;;;;;;13.30;8.13;;;1.40;99.90;;;;;;5056793;28;20498;-67
2023/02/28 06:17:38;;;;;;;11.40;7.73;;;1.40;99.90;;;;;;5057655;28;20455;-67
2023/02/28 06:20:06;;;;;;;17.80;9.33;;;1.30;99.90;;;;;;5056595;28;20493;-68
2023/02/28 06:22:35;;;;;;;13.37;9.07;;;1.20;99.90;;;;;;5056995;28;20483;-68
2023/02/28 06:25:02;;;;;;;13.17;9.37;;;1.10;99.90;;;;;;5056456;28;20459;-68
2023/02/28 06:27:29;;;;;;;17.53;9.17;;;1.00;99.90;;;;;;5055956;28;20935;-68
2023/02/28 06:29:56;;;;;;;11.77;8.47;;;1.00;99.90;;;;;;5056663;28;20455;-68
2023/02/28 06:32:23;;;;;;;16.40;9.23;;;0.90;99.90;;;;;;5055943;28;20459;-68
2023/02/28 06:34:50;;;;;;;16.70;9.53;;;0.80;99.90;;;;;;5055981;28;20504;-68
2023/02/28 06:37:17;;;;;;;14.37;9.67;;;0.80;99.90;;;;;;5056116;28;20528;-68
2023/02/28 06:39:45;;;;;;;14.63;9.67;;;0.80;99.90;;;;;;5056188;28;20487;-68
2023/02/28 06:42:12;;;;;;;13.40;9.93;;;0.80;99.90;;;;;;5056373;28;20489;-69
2023/02/28 06:44:39;;;;;;;16.47;12.27;;;0.80;99.90;;;;;;5056161;28;20459;-68
2023/02/28 06:47:07;;;;;;;18.27;12.53;;;0.90;99.90;;;;;;5056115;28;20455;-68
2023/02/28 06:49:36;;;;;;;18.20;10.73;;;1.00;99.90;;;;;;5056209;28;20485;-69
2023/02/28 06:52:04;;;;;;;13.00;10.00;;;1.10;99.90;;;;;;5056218;28;20641;-68
2023/02/28 06:54:31;;;;;;;15.03;10.93;;;1.10;99.90;;;;;;5056269;28;20470;-67
2023/02/28 06:57:00;;;;;;;14.77;11.03;;;1.10;99.90;;;;;;5056003;28;20469;-67
2023/02/28 06:59:26;;;;;;;19.37;11.77;;;1.00;99.90;;;;;;5056110;28;20538;-67
2023/02/28 07:01:54;;;;;;;15.87;12.10;;;1.00;99.90;;;;;;5055714;28;20967;-67
2023/02/28 07:04:21;;;;;;;17.43;11.70;;;1.10;99.90;;;;;;5055845;28;20515;-67
2023/02/28 07:06:48;;;;;;;16.30;10.80;;;1.10;99.90;;;;;;5055634;28;20462;-67
2023/02/28 07:09:15;;;;;;;15.47;10.83;;;1.10;99.90;;;;;;5055460;28;20924;-68
2023/02/28 07:11:42;;;;;;;17.17;11.20;;;1.10;99.90;;;;;;5056122;28;20526;-68
2023/02/28 07:14:10;;;;;;;17.27;11.60;;;1.20;99.90;;;;;;5055487;28;20467;-68
2023/02/28 07:16:37;;;;;;;16.00;11.73;;;1.30;99.90;;;;;;5055833;28;20451;-68
2023/02/28 07:19:04;;;;;;;21.07;12.93;;;1.40;99.90;;;;;;5055442;28;20804;-68
2023/02/28 07:21:31;;;;;;;16.53;11.23;;;1.50;99.90;;;;;;5055258;28;20452;-66
2023/02/28 07:23:58;;;;;;;21.43;11.63;;;1.50;99.90;;;;;;5056141;28;20503;-68
2023/02/28 07:26:25;;;;;;;21.97;15.30;;;1.50;99.90;;;;;;5055418;28;20463;-68
2023/02/28 07:28:51;;;;;;;47.10;24.87;;;1.60;99.90;;;;;;5055263;28;20455;-68
2023/02/28 07:31:20;;;;;;;21.70;12.07;;;1.60;99.90;;;;;;5055481;28;20860;-67
2023/02/28 07:33:47;;;;;;;15.00;10.47;;;1.60;99.90;;;;;;5055231;28;20539;-69
2023/02/28 07:36:19;;;;;;;17.17;10.67;;;1.50;99.90;;;;;;5055510;28;20467;-68
2023/02/28 07:38:47;;;;;;;11.60;9.70;;;1.40;99.90;;;;;;5055088;28;20459;-69
2023/02/28 07:41:15;;;;;;;16.77;10.00;;;1.40;99.90;;;;;;5055406;28;20455;-69
2023/02/28 07:43:42;;;;;;;16.07;9.57;;;1.40;99.90;;;;;;5054993;28;20486;-67
2023/02/28 07:46:11;;;;;;;17.57;12.07;;;1.40;99.90;;;;;;5055355;28;20455;-69
2023/02/28 07:48:40;;;;;;;13.90;10.90;;;1.40;99.90;;;;;;5054490;28;20456;-68
2023/02/28 07:51:07;;;;;;;16.87;10.23;;;1.50;99.90;;;;;;5055189;28;20847;-68
2023/02/28 07:53:34;;;;;;;17.37;11.30;;;1.60;99.90;;;;;;5055156;28;20455;-67
2023/02/28 07:56:02;;;;;;;15.23;9.67;;;1.70;99.90;;;;;;5055011;28;20487;-68
2023/02/28 07:58:30;;;;;;;14.30;10.07;;;1.90;99.90;;;;;;5054825;28;20541;-69
2023/02/28 08:00:57;;;;;;;40.30;25.07;;;2.00;99.90;;;;;;5054688;28;20557;-68
2023/02/28 08:03:25;;;;;;;53.30;38.03;;;2.00;99.90;;;;;;5054371;28;20498;-68
2023/02/28 08:05:53;;;;;;;26.93;18.10;;;2.10;99.90;;;;;;5054812;28;20485;-68
2023/02/28 08:08:20;;;;;;;15.53;11.40;;;2.20;99.90;;;;;;5054880;28;20459;-69
2023/02/28 08:10:47;;;;;;;12.10;8.73;;;2.30;99.90;;;;;;5054959;28;20534;-67
2023/02/28 08:13:14;;;;;;;11.80;7.30;;;2.50;99.90;;;;;;5054360;28;20451;-67
2023/02/28 08:15:42;;;;;;;11.83;5.80;;;2.60;99.90;;;;;;5054387;28;20546;-68
2023/02/28 08:18:09;;;;;;;10.17;6.33;;;2.70;99.90;;;;;;5054120;28;20583;-68
2023/02/28 08:20:36;;;;;;;8.13;5.87;;;2.70;99.90;;;;;;5054435;28;20454;-70
2023/02/28 08:23:04;;;;;;;8.83;5.90;;;2.80;99.90;;;;;;5054511;28;20568;-67
2023/02/28 08:25:31;;;;;;;11.40;6.03;;;2.80;99.90;;;;;;5054168;28;20489;-67
2023/02/28 08:27:58;;;;;;;8.03;6.10;;;2.90;99.90;;;;;;5053498;28;20455;-68
2023/02/28 08:30:25;;;;;;;8.50;5.80;;;2.90;99.90;;;;;;5052535;28;20542;-69
2023/02/28 08:32:51;;;;;;;9.27;6.60;;;3.00;99.90;;;;;;5053609;28;20553;-69
2023/02/28 08:35:18;;;;;;;7.50;5.80;;;3.10;99.90;;;;;;5053758;28;20465;-69
2023/02/28 08:37:45;;;;;;;9.70;6.50;;;3.20;99.90;;;;;;5053735;28;20470;-68
2023/02/28 08:40:17;;;;;;;5.60;4.30;;;3.20;99.90;;;;;;5053928;28;20649;-68
2023/02/28 08:42:44;;;;;;;6.47;4.47;;;3.30;99.90;;;;;;5054161;28;20766;-69
2023/02/28 08:45:12;;;;;;;7.83;4.50;;;3.30;99.90;;;;;;5054105;28;20546;-68
2023/02/28 08:47:39;;;;;;;4.47;3.70;;;3.30;99.90;;;;;;5054206;28;20562;-68
2023/02/28 08:50:07;;;;;;;4.97;3.40;;;3.30;99.90;;;;;;5054335;28;20860;-68
2023/02/28 08:52:34;;;;;;;3.80;3.03;;;3.40;99.90;;;;;;5053728;28;20469;-69
2023/02/28 08:55:01;;;;;;;4.27;3.00;;;3.40;99.90;;;;;;5054046;28;20556;-69
2023/02/28 08:57:29;;;;;;;3.93;3.07;;;3.50;99.90;;;;;;5053732;28;20936;-68
2023/02/28 08:59:57;;;;;;;5.10;2.87;;;3.60;99.90;;;;;;5053886;28;20465;-69
2023/02/28 09:02:23;;;;;;;5.63;2.97;;;3.70;99.90;;;;;;5057285;28;20459;-68
2023/02/28 09:04:50;;;;;;;3.17;2.87;;;3.80;99.90;;;;;;5057480;28;21026;-68
2023/02/28 09:07:17;;;;;;;8.47;2.67;;;3.80;99.90;;;;;;5058134;28;20463;-68
2023/02/28 09:09:54;;;;;;;6.80;3.23;;;3.70;99.40;;;;;;5057703;28;20461;-69
2023/02/28 09:12:21;;;;;;;4.03;2.20;;;3.60;99.80;;;;;;5058152;28;20447;-69
2023/02/28 09:14:49;;;;;;;4.90;3.20;;;3.70;99.90;;;;;;5058176;28;20777;-68
2023/02/28 09:17:16;;;;;;;7.23;3.40;;;3.60;97.00;;;;;;5057800;28;20546;-68
2023/02/28 09:19:43;;;;;;;5.10;2.90;;;3.60;96.60;;;;;;5057403;28;20502;-69
2023/02/28 09:22:11;;;;;;;3.90;3.23;;;3.60;96.50;;;;;;5057752;28;20459;-69
2023/02/28 09:24:38;;;;;;;41.83;26.10;;;3.70;97.90;;;;;;5057624;28;20478;-68
2023/02/28 09:27:06;;;;;;;7.07;4.30;;;3.70;96.80;;;;;;5058020;28;20465;-68
2023/02/28 09:29:34;;;;;;;5.03;3.50;;;3.80;98.90;;;;;;5057830;28;20565;-68
2023/02/28 09:32:02;;;;;;;3.63;2.80;;;3.70;95.90;;;;;;5058062;28;20916;-68
2023/02/28 09:34:31;;;;;;;4.63;2.50;;;3.60;93.90;;;;;;5058003;28;20447;-67
2023/02/28 09:36:57;;;;;;;5.90;2.80;;;3.70;95.50;;;;;;5057884;28;20455;-68
2023/02/28 09:39:26;;;;;;;3.30;2.40;;;3.80;95.80;;;;;;5057981;28;20497;-68
2023/02/28 09:41:54;;;;;;;3.07;2.30;;;3.70;93.40;;;;;;5057993;28;20471;-68
2023/02/28 09:44:28;;;;;;;3.60;2.60;;;3.70;93.90;;;;;;5058092;28;20510;-68
2023/02/28 09:47:00;;;;;;;3.67;3.07;;;3.80;94.30;;;;;;5057840;28;20893;-67
2023/02/28 09:49:35;;;;;;;21.20;12.80;;;3.90;95.20;;;;;;5058093;28;20450;-68
2023/02/28 09:52:05;;;;;;;4.27;2.83;;;4.00;93.00;;;;;;5057612;28;20533;-68
2023/02/28 09:54:33;;;;;;;3.07;2.10;;;4.00;92.70;;;;;;5057621;28;20455;-68
2023/02/28 09:57:06;;;;;;;3.47;2.03;;;4.10;91.80;;;;;;5057170;28;20558;-68
2023/02/28 09:59:43;;;;;;;3.33;2.17;;;4.00;90.30;;;;;;5058367;28;20534;-68
2023/02/28 10:02:33;;;;;;;7.20;2.20;;;3.90;91.20;;;;;;5057708;28;20443;-68
2023/02/28 10:05:09;;;;;;;2.80;2.43;;;4.00;92.50;;;;;;5044769;28;20483;-68
2023/02/28 10:07:54;;;;;;;2.90;2.23;;;4.20;94.10;;;;;;5057436;28;20455;-68
2023/02/28 10:10:26;;;;;;;5.43;4.47;;;4.30;91.60;;;;;;5064405;28;20466;-69
2023/02/28 10:12:56;;;;;;;3.37;3.07;;;4.40;90.90;;;;;;5076829;28;20533;-68
2023/02/28 10:15:26;;;;;;;5.37;2.20;;;4.30;90.10;;;;;;5076468;28;20537;-67
2023/02/28 10:17:58;;;;;;;4.70;2.43;;;4.30;87.90;;;;;;5076473;28;20818;-67
2023/02/28 10:20:30;;;;;;;3.70;2.17;;;4.30;88.70;;;;;;5076750;28;20438;-69
2023/02/28 10:23:06;;;;;;;2.63;2.07;;;4.40;91.90;;;;;;5077239;28;20442;-68
2023/02/28 10:25:34;;;;;;;4.60;3.37;;;4.40;87.00;;;;;;5076667;28;20470;-68
2023/02/28 10:28:09;;;;;;;2.70;2.40;;;4.40;90.80;;;;;;5076558;28;20469;-68
2023/02/28 10:30:38;;;;;;;5.10;2.30;;;4.50;88.20;;;;;;5075860;28;20448;-68
2023/02/28 10:33:05;;;;;;;3.10;2.10;;;4.40;84.50;;;;;;5076190;28;20454;-67
2023/02/28 10:35:34;;;;;;;2.93;2.20;;;4.20;84.40;;;;;;5076414;28;20459;-68
2023/02/28 10:38:10;;;;;;;11.77;7.10;;;4.30;85.60;;;;;;5076335;28;20454;-69
2023/02/28 10:40:37;;;;;;;5.03;3.40;;;4.20;84.20;;;;;;5076549;28;20427;-68
2023/02/28 10:43:06;;;;;;;3.97;2.60;;;4.30;89.10;;;;;;5075873;28;20988;-68
2023/02/28 10:45:36;;;;;;;3.97;2.57;;;4.30;84.40;;;;;;5075769;28;20557;-68
2023/02/28 10:48:05;;;;;;;3.57;2.47;;;4.40;89.50;;;;;;5076304;28;20443;-68
2023/02/28 10:50:45;;;;;;;4.13;2.57;;;4.50;86.20;;;;;;5076019;28;20987;-68
2023/02/28 10:53:29;;;;;;;3.00;2.10;;;4.60;84.80;;;;;;5076203;28;20533;-68
2023/02/28 10:56:02;;;;;;;5.20;1.90;;;4.70;84.80;;;;;;5075956;28;20489;-68
2023/02/28 10:58:30;;;;;;;2.23;1.80;;;4.90;84.60;;;;;;5075794;28;20454;-68
2023/02/28 11:00:58;;;;;;;2.80;2.33;;;5.00;83.80;;;;;;5075767;28;20536;-67
2023/02/28 11:03:30;;;;;;;2.37;1.87;;;5.00;81.10;;;;;;5075664;28;20454;-68
2023/02/28 11:05:59;;;;;;;2.50;2.00;;;5.00;83.30;;;;;;5075793;28;20478;-67
2023/02/28 11:08:26;;;;;;;3.80;2.27;;;4.90;77.50;;;;;;5075302;28;20486;-66
2023/02/28 11:10:57;;;;;;;1.73;1.63;;;5.00;77.40;;;;;;5075918;28;20545;-67
2023/02/28 11:16:15;;;;;;;3.00;2.13;;;4.90;77.40;;;;;;5053833;28;20448;-69
2023/02/28 11:18:45;;;;;;;5.00;2.00;;;4.90;74.30;;;;;;5055114;28;20463;-69
2023/02/28 11:21:20;;;;;;;3.83;2.60;;;4.80;73.70;;;;;;5055462;28;20531;-69
2023/02/28 11:23:50;;;;;;;2.90;2.60;;;4.90;77.50;;;;;;5054796;28;20525;-69
2023/02/28 11:26:36;;;;;;;2.93;2.63;;;5.00;78.00;;;;;;5055105;28;20542;-69
2023/02/28 11:29:12;;;;;;;7.63;2.60;;;5.00;77.60;;;;;;5055289;28;20505;-69
2023/02/28 11:31:39;;;;;;;3.73;2.30;;;5.00;71.70;;;;;;5055766;28;20486;-69
2023/02/28 11:34:25;;;;;;;2.90;2.50;;;5.10;75.70;;;;;;5055227;28;20542;-65
2023/02/28 11:36:56;;;;;;;3.20;2.30;;;5.20;79.30;;;;;;5055261;28;20922;-65
2023/02/28 11:39:24;;;;;;;3.70;2.93;;;5.30;80.80;;;;;;5055153;28;20756;-66
2023/02/28 11:42:10;;;;;;;4.50;2.80;;;5.30;76.80;;;;;;5054799;28;20473;-65
2023/02/28 11:44:54;;;;;;;3.40;2.83;;;5.40;75.70;;;;;;5055441;28;20507;-66
2023/02/28 11:47:30;;;;;;;7.30;3.57;;;5.40;73.50;;;;;;5055902;28;20483;-65
2023/02/28 11:50:11;;;;;;;5.43;3.90;;;5.40;73.90;;;;;;5055550;28;20500;-66
2023/02/28 11:52:49;;;;;;;6.83;4.07;;;5.40;72.40;;;;;;5055795;28;20471;-65
2023/02/28 11:55:20;;;;;;;4.30;2.97;;;5.50;75.10;;;;;;5055171;28;20450;-65
2023/02/28 11:58:05;;;;;;;4.70;2.93;;;5.60;74.00;;;;;;5054783;28;20457;-65
2023/02/28 12:00:46;;;;;;;3.10;2.80;;;5.70;70.80;;;;;;5055136;28;20511;-66
2023/02/28 12:03:24;;;;;;;3.50;2.70;;;5.70;70.40;;;;;;5055171;28;20926;-65
2023/02/28 12:06:01;;;;;;;3.53;2.80;;;5.80;70.90;;;;;;5055343;28;20870;-64
2023/02/28 12:08:43;;;;;;;3.43;2.53;;;6.50;72.00;;;;;;5055280;28;20529;-65
2023/02/28 12:11:17;;;;;;;5.23;3.07;;;7.90;64.50;;;;;;5055450;28;20450;-66
2023/02/28 12:13:54;;;;;;;6.13;3.30;;;9.40;55.80;;;;;;5055254;28;20837;-66
2023/02/28 12:16:46;;;;;;;3.00;2.00;;;10.80;50.70;;;;;;5055191;28;20442;-65
2023/02/28 12:19:20;;;;;;;7.13;3.20;;;12.20;42.40;;;;;;5054953;28;20446;-65
2023/02/28 12:22:13;;;;;;;5.50;4.20;;;13.30;36.00;;;;;;5054732;28;20442;-65
2023/02/28 12:25:21;;;;;;;3.60;2.43;;;14.30;33.70;;;;;;5055023;28;20467;-66
2023/02/28 12:27:49;;;;;;;3.50;2.57;;;15.30;29.80;;;;;;5054532;28;20455;-65
2023/02/28 12:30:22;;;;;;;3.97;2.47;;;16.20;27.60;;;;;;5054697;28;20466;-66
2023/02/28 12:32:54;;;;;;;3.90;2.63;;;17.20;26.50;;;;;;5054648;28;20443;-66
2023/02/28 12:35:25;;;;;;;2.73;2.50;;;17.80;23.10;;;;;;5056403;28;20439;-64
2023/02/28 12:37:58;;;;;;;5.03;3.17;;;18.50;22.00;;;;;;5059431;28;20526;-65
2023/02/28 12:40:29;;;;;;;4.20;3.30;;;18.50;20.30;;;;;;5058514;28;20518;-64
2023/02/28 12:43:00;;;;;;;2.93;2.60;;;18.40;18.10;;;;;;5058815;28;20812;-65
2023/02/28 12:45:33;;;;;;;5.20;3.20;;;18.10;17.90;;;;;;5059149;28;20553;-65
2023/02/28 12:48:05;;;;;;;4.87;3.10;;;18.30;18.60;;;;;;5058427;28;20443;-65
2023/02/28 12:50:34;;;;;;;4.73;3.33;;;18.40;17.50;;;;;;5058151;28;20435;-66
2023/02/28 12:53:05;;;;;;;3.50;3.20;;;19.00;18.10;;;;;;5058100;28;20467;-67
2023/02/28 12:55:41;;;;;;;5.27;4.00;;;19.70;17.70;;;;;;5058535;28;20902;-66
2023/02/28 12:58:15;;;;;;;3.73;2.60;;;20.40;18.60;;;;;;5059460;28;20473;-66
2023/02/28 13:01:04;;;;;;;4.37;3.20;;;20.90;16.10;;;;;;5059538;28;20509;-65
2023/02/28 13:03:50;;;;;;;3.80;2.50;;;20.60;14.70;;;;;;5059524;28;20447;-65
2023/02/28 13:06:58;;;;;;;4.93;3.40;;;20.70;14.20;;;;;;5058514;28;20549;-66
2023/02/28 13:09:25;;;;;;;4.70;2.90;;;21.00;16.00;;;;;;5056980;28;20546;-66
2023/02/28 13:11:55;;;;;;;3.00;2.67;;;21.20;14.10;;;;;;5059776;28;20461;-66